logo
Search for airport 
image banner adimage banner adimage banner ad
image banner ad

SNWC - Aeroporto De Camocim

Located in Camocim, Brazil

ICAO - SNWC, IATA - CMC

Data provided by Airmate  

General information

Coordinates: S2°53'45" W40°51'32"
Elevation is 46 feet MSL.
Magnetic variation is -20.7° East
View others Airports in Ceará

Operational data

Special qualification required
Current time UTC:
Current local time:
Weather at : - ( 0 km )
METAR: LEST 251721Z 24006KT 190V310 5000 -RADZ BKN002 OVC006 13/13 Q1018 NOSIG
View NOTAMs / SUP AIP / TFR affecting this airport [VIEW]
Communications frequencies: [VIEW]

Runways:

RWY identifierQFULength (ft)Width (ft)SurfaceLDA (ft)
144134197ASPH
324134197ASPH

Airport contact information

Address: Camocim Brazil

Satellite view of SNWC